Esther, Alberta

Past 24 Hour Conditions

Date / Time
(MST)
Conditions Temp
(°F)
Humidity
(%)
Dew Point
(°F)
Wind
(mph)
Pressure
(inches)
Vis
(mi)
Wind Chill
23 November 2014
9:00 N/A 12   83 8 WSW 10 29.9 N/A -1
8:00 N/A 14 85 10 WSW 10 29.9 N/A 2
7:00 N/A 16 83 12 W 13 29.9 N/A 2
6:00 N/A 13 82 8 W 10 29.9 N/A -1
5:00 N/A 15 83 11 W 17 29.9 N/A -1
4:00 N/A 16 86 12 W 14 29.9 N/A 1
3:00 N/A 17 87 14 W 12 29.8 N/A 4
2:00 N/A 18 88 15 WNW 13 gust 20 29.8 N/A 5
1:00 N/A 19 88 16 WNW 14 29.7 N/A 5
00:00 N/A 21 89 18 WNW 14 gust 19 29.7 N/A 7
22 November 2014
23:00 N/A 22 91 19 WNW 16 29.6 N/A 8
22:00 N/A 22 91 19 NW 12 29.6 N/A 10
21:00 N/A 22 92 20 NW 14 29.6 N/A 9
20:00 N/A 24 91 22 WNW 13 29.5 N/A 12
19:00 N/A 24 91 22 NNW 17 29.5 N/A 11
18:00 N/A 25 89 22 NNW 17 29.4 N/A 12
17:00 N/A 27 89 24 NNW 14 gust 20 29.3 N/A 15
16:00 N/A 30 92 28 NNW 12 29.3 N/A 19
15:00 N/A 31 92 29 NW 9 29.2 N/A 23
14:00 N/A 32 93 30 NW 8 29.2 N/A *
13:00 N/A 33   93 31 NW 5 29.1 N/A *
12:00 N/A 33   93 31 N 3 29.1 N/A *
11:00 N/A 33   92 31 E 9 29.1 N/A *
10:00 N/A 32 94 31 E 11 29.1 N/A *
9:00 N/A 31 93 30 E 11 29.2 N/A 22
N/A Not available
↑ Highest temperature
↓ Lowest temperature
* Value not significant.

If you require additional historical weather information, please visit Climate Data Online.

Date modified: